Baradine Forestry, New South Wales

10:07 PM EST on July 29, 2014 (GMT +1000)
INEWSOUT107 Elev 991 ft | 30.95 °S, 149.07 °E | Change Station

Current weather conditions updated 37 minutes ago

Clear
Clear
40.6 °F
Feels Like 41 °F
N
0.0
Wind Variable Wind from North
Gusts 0.0 mph

Tomorrow is forecast to be nearly the same temperature as today.

Today
High -- | Low -- °F
--% Chance of Precip.
Yesterday
High -- | Low -- °F
Precip. -- in
6:53 AM 5:27 PM
Waxing Crescent, 6% visible
Pressure 30.18 in
Visibility -9999.0 miles
Clouds
Windchill 41 °F
Dew Point 38 °F
Humidity 91%
Rainfall 0.00 in
Snow Depth Not available.
UV Not available.
Pollen Not available.
Air Quality Not available.
Flu Activity Not available.
METAR YCBB 291200Z AUTO 35006KT //// // ////// 09/02 Q1022

More Conditions Fewer Conditions

Pressure 30.18 in
Visibility -9999.0 miles
Clouds
Windchill 41 °F
Dew Point 38 °F
Humidity 91%
Rainfall 0.00 in
Snow Depth Not available.
UV Not available.
Pollen Not available.
Air Quality Not available.
Flu Activity Not available.
METAR YCBB 291200Z AUTO 35006KT //// // ////// 09/02 Q1022

More Conditions Fewer Conditions

10-Day Weather Forecast

Almanac

Astronomy

Jul. 29, 2014 Rise Set
Actual Time 6:53 AM EST 5:27 PM EST
Civil Twilight 6:27 AM EST 5:53 PM EST
Nautical Twilight 5:58 AM EST 6:22 PM EST
Astronomical Twilight 5:29 AM EST 6:51 PM EST
Moon 7:50 AM EST 7:32 PM EST
Length of Visible Light 11h 25m
Length of Day
10h 34m
Tomorrow will be 1m 18s longer.
Waxing Crescent, 6% of the Moon is Illuminated
Today
Waxing Crescent
Aug 3
First Quarter
Aug 10
Full
Aug 17
Last Quarter
Aug 25
New

Yesterday's Extremes

Country Highs Country Lows

Community

WunderPhotos

Upload Photos

1,738,694 photos uploaded!

WunderBlogs® & News

By Dr. Jeff Masters
Director of Meteorology, Weather Underground
By Kari Strenfel
Meteorologist, Weather Underground
By Christopher C. Burt
Weather Historian, Weather Underground
July 29, 2014
July 29, 2014
July 29, 2014

Nearby

Snow Depth

Not available.

Earthquake Activity

City Distance Mag. Time & Date
No recent earthquake activity has been reported nearby.
Minimum magnitude displayed is 2.5.

Coastal Water Temperatures

Place Temperature
No Stations Reporting

Nearby Weather Stations

Station Location Temp. Windchill Dew Point Humidity Wind Precip. Elev Updated Type
Baradine 40.6 °F 41 °F 38 °F 91% North  at  0.0 mph 0.00 in / hr 991 ft 9:30 PM EST Rapid Fire
EPSO, Coonabarabran 40.3 °F 40 °F 33 °F 75% NW  at  0.3 mph 0.00 in / hr 1856 ft 10:00 PM EST Normal
Warrumbungles, Coonabarabran 39.2 °F 39 °F 32 °F 70% NW  at  0.0 mph 0.00 in / hr 1749 ft 9:54 PM EST Normal

Show More Stations Show Fewer Stations